Latest Weather Observations for Port Kembla Harbour

IDN60801

Issued at 3:35 pm EDT Sunday 26 October 2014 (issued every 30 minutes, with the page automatically refreshed every 10 minutes)

About weather observations | Map of weather stations | Latest weather observations for NSW | Other Formats
Station Details ID: 068253 Name: PORT KEMBLA NTC AWS Lat: -34.47 Lon: 150.91 Height: 0.0 m
Data from the previous 72 hours. | See also: Recent months for locations in New South Wales
Date/Time
EDT
Temp
°C
App
Temp
°C
Dew
Point
Rel
Hum
%
Delta-T
°C
Wind Press
QNH
hPa
Press
MSL
hPa
Rain
since 9 am
mm
Dir
 
Spd
km/h
Gust
km/h
Spd
kts
Gust
kts
26/03:30pm 20.9 - - - - S 15 32 8 17 1008.8 1008.8 -
26/03:00pm 20.8 - - - - SSE 15 24 8 13 1008.7 1008.7 -
26/02:30pm 20.9 - - - - SSE 13 26 7 14 1009.1 1009.1 -
26/02:00pm 20.8 - - - - SE 13 26 7 14 1009.0 1009.0 -
26/01:30pm 20.6 - - - - SE 15 24 8 13 1009.3 1009.3 -
26/01:00pm 19.9 - - - - SE 17 24 9 13 1009.3 1009.3 -
26/12:30pm 19.5 - - - - SE 15 24 8 13 1009.3 1009.3 -
26/12:00pm 20.4 - - - - SSE 13 22 7 12 1009.3 1009.3 -
26/11:30am 19.9 - - - - SSE 13 20 7 11 1009.3 1009.3 -
26/11:00am 19.4 - - - - SE 11 19 6 10 1009.4 1009.4 -
26/10:30am 18.6 - - - - SE 11 17 6 9 1009.3 1009.3 -
26/10:00am 18.3 - - - - SE 11 13 6 7 1009.4 1009.4 -
26/09:30am 18.8 - - - - SE 7 9 4 5 1009.5 1009.5 -
26/09:00am 18.8 - - - - SE 6 7 3 4 1009.7 1009.7 -
26/08:30am 18.8 - - - - SE 6 9 3 5 1009.9 1009.9 -
26/08:00am 18.9 - - - - ESE 4 7 2 4 1010.0 1010.0 -
26/07:30am 18.4 - - - - SSW 6 7 3 4 1010.3 1010.3 -
26/07:00am 18.0 - - - - SW 6 7 3 4 1010.1 1010.1 -
26/06:30am 17.8 - - - - SSW 4 7 2 4 1010.1 1010.1 -
26/06:00am 17.9 - - - - S 2 4 1 2 1009.9 1009.9 -
26/05:30am 17.9 - - - - SW 4 6 2 3 1009.9 1009.9 -
26/05:00am 18.0 - - - - S 4 6 2 3 1010.1 1010.1 -
26/04:30am 18.0 - - - - S 6 7 3 4 1010.3 1010.3 -
26/04:00am 18.2 - - - - S 4 7 2 4 1010.5 1010.5 -
26/03:30am 18.5 - - - - S 2 2 1 1 1010.9 1010.9 -
26/03:00am 18.4 - - - - SE 4 7 2 4 1011.3 1011.3 -
26/02:30am 18.7 - - - - W 4 7 2 4 1012.1 1012.1 -
26/02:00am 18.8 - - - - SW 7 11 4 6 1012.2 1012.2 -
26/01:30am 18.8 - - - - NNE 4 6 2 3 1012.7 1012.7 -
26/01:00am 18.9 - - - - ENE 6 7 3 4 1013.1 1013.1 -
26/12:30am 18.9 - - - - ENE 4 9 2 5 1013.6 1013.6 -
26/12:00am 19.0 - - - - NE 9 13 5 7 1013.8 1013.8 -
 
Date/Time
EDT
Temp
°C
App
Temp
°C
Dew
Point
Rel
Hum
%
Delta-T
°C
Wind Press
QNH
hPa
Press
MSL
hPa
Rain
since 9 am
mm
Dir
 
Spd
km/h
Gust
km/h
Spd
kts
Gust
kts
25/11:30pm 19.1 - - - - ENE 13 22 7 12 1014.2 1014.2 -
25/11:26pm 19.4 - - - - E 9 19 5 10 1014.5 1014.5 -
25/11:00pm 19.6 - - - - SW 11 15 6 8 1016.6 1016.6 -
25/10:30pm 19.6 - - - - NW 11 17 6 9 1015.3 1015.3 -
25/10:00pm 19.0 - - - - W 6 11 3 6 1016.0 1016.0 -
25/09:30pm 18.9 - - - - ENE 2 4 1 2 1015.5 1015.5 -
25/09:00pm 18.8 - - - - WSW 6 9 3 5 1015.9 1015.9 -
25/08:30pm 18.8 - - - - SSE 7 13 4 7 1015.3 1015.3 -
25/08:00pm 19.0 - - - - S 9 17 5 9 1015.6 1015.6 -
25/07:30pm 19.0 - - - - S 9 17 5 9 1015.0 1015.0 -
25/07:00pm 19.1 - - - - S 13 26 7 14 1014.9 1014.9 -
25/06:30pm 19.3 - - - - S 13 22 7 12 1014.7 1014.7 -
25/06:00pm 19.6 - - - - S 11 24 6 13 1014.1 1014.1 -
25/05:30pm 19.7 - - - - S 13 26 7 14 1014.2 1014.2 -
25/05:00pm 19.8 - - - - S 11 20 6 11 1014.0 1014.0 -
25/04:30pm 19.8 - - - - SSE 15 28 8 15 1014.1 1014.1 -
25/04:00pm 20.3 - - - - SSE 13 22 7 12 1014.1 1014.1 -
25/03:30pm 20.5 - - - - SSE 13 28 7 15 1013.8 1013.8 -
25/03:00pm 20.0 - - - - SSE 15 26 8 14 1013.9 1013.9 -
25/02:30pm 20.2 - - - - SSE 17 32 9 17 1014.0 1014.0 -
25/02:00pm 20.5 - - - - S 13 26 7 14 1014.4 1014.4 -
25/01:30pm 20.6 - - - - SSE 17 30 9 16 1014.5 1014.5 -
25/01:00pm 21.1 - - - - SSE 15 30 8 16 1014.5 1014.5 -
25/12:30pm 20.9 - - - - SSE 17 30 9 16 1014.6 1014.6 -
25/12:00pm 21.4 - - - - SSE 11 24 6 13 1014.9 1014.9 -
25/11:30am 21.4 - - - - SE 13 19 7 10 1015.1 1015.1 -
25/11:00am 20.8 - - - - ENE 7 11 4 6 1015.0 1015.0 -
25/10:30am 20.5 - - - - NE 7 11 4 6 1014.9 1014.9 -
25/10:00am 20.1 - - - - NNE 7 13 4 7 1014.8 1014.8 -
25/09:30am 20.3 - - - - E 7 11 4 6 1014.6 1014.6 -
25/09:00am 20.9 - - - - ESE 6 9 3 5 1014.6 1014.6 -
25/08:30am 20.1 - - - - E 4 7 2 4 1014.7 1014.7 -
25/08:00am 20.2 - - - - E 6 9 3 5 1014.2 1014.2 -
25/07:30am 19.7 - - - - W 2 4 1 2 1014.2 1014.2 -
25/07:00am 19.2 - - - - W 4 6 2 3 1014.0 1014.0 -
25/06:30am 18.5 - - - - WSW 7 9 4 5 1013.7 1013.7 -
25/06:00am 18.6 - - - - WSW 6 7 3 4 1013.2 1013.2 -
25/05:30am 18.9 - - - - SW 2 4 1 2 1012.6 1012.6 -
25/05:00am 19.0 - - - - CALM 0 2 0 1 1012.2 1012.2 -
25/04:30am 19.4 - - - - CALM 0 2 0 1 1012.1 1012.1 -
25/04:00am 19.3 - - - - NNE 9 11 5 6 1011.9 1011.9 -
25/03:30am 19.2 - - - - ENE 4 7 2 4 1011.9 1011.9 -
25/03:00am 19.5 - - - - NE 7 9 4 5 1011.8 1011.8 -
25/02:30am 19.7 - - - - NE 4 6 2 3 1011.9 1011.9 -
25/02:00am 19.7 - - - - NNE 2 4 1 2 1012.1 1012.1 -
25/01:30am 19.8 - - - - N 7 9 4 5 1012.4 1012.4 -
25/01:00am 20.0 - - - - NNE 11 20 6 11 1012.6 1012.6 -
25/12:30am 19.8 - - - - NNE 11 24 6 13 1012.8 1012.8 -
25/12:00am 19.7 - - - - NNE 7 13 4 7 1012.8 1012.8 -
 
Date/Time
EDT
Temp
°C
App
Temp
°C
Dew
Point
Rel
Hum
%
Delta-T
°C
Wind Press
QNH
hPa
Press
MSL
hPa
Rain
since 9 am
mm
Dir
 
Spd
km/h
Gust
km/h
Spd
kts
Gust
kts
24/11:30pm 19.8 - - - - N 9 17 5 9 1013.0 1013.0 -
24/11:00pm 19.7 - - - - E 11 24 6 13 1012.9 1012.9 -
24/10:30pm 19.7 - - - - ESE 19 24 10 13 1013.3 1013.3 -
24/10:00pm 20.4 - - - - WSW 6 13 3 7 1013.9 1013.9 -
24/09:30pm 19.7 - - - - NE 19 37 10 20 1012.8 1012.8 -
24/09:20pm 19.8 - - - - NE 28 39 15 21 1011.6 1011.6 -
24/09:00pm 19.9 - - - - N 9 19 5 10 1013.2 1013.2 -
24/08:30pm 19.8 - - - - N 15 19 8 10 1012.8 1012.8 -
24/08:00pm 19.9 - - - - N 19 26 10 14 1012.6 1012.6 -
24/07:30pm 19.9 - - - - NNE 17 22 9 12 1012.5 1012.5 -
24/07:00pm 19.9 - - - - NE 24 32 13 17 1012.4 1012.4 -
24/06:30pm 20.0 - - - - NE 26 35 14 19 1012.1 1012.1 -
24/06:00pm 20.0 - - - - NE 28 37 15 20 1012.2 1012.2 -
24/05:30pm 19.9 - - - - NE 26 33 14 18 1012.2 1012.2 -
24/05:00pm 19.7 - - - - NNE 28 37 15 20 1012.3 1012.3 -
24/04:30pm 19.6 - - - - NNE 32 41 17 22 1012.5 1012.5 -
24/04:00pm 19.6 - - - - NNE 26 33 14 18 1012.9 1012.9 -
24/03:30pm 19.7 - - - - NNE 20 32 11 17 1013.3 1013.3 -
24/03:00pm 19.7 - - - - NNE 20 26 11 14 1013.9 1013.9 -
24/02:30pm 19.8 - - - - NNE 19 28 10 15 1014.4 1014.4 -
24/02:00pm 19.8 - - - - NNE 19 24 10 13 1015.1 1015.1 -
24/01:30pm 19.9 - - - - NE 20 30 11 16 1015.6 1015.6 -
24/01:00pm 19.8 - - - - NE 19 28 10 15 1016.0 1016.0 -
24/12:30pm 19.9 - - - - NE 22 30 12 16 1016.5 1016.5 -
24/12:00pm 19.9 - - - - NE 20 28 11 15 1017.0 1017.0 -
24/11:30am 19.9 - - - - NE 7 13 4 7 1017.9 1017.9 -
24/11:00am 19.6 - - - - NE 13 19 7 10 1018.5 1018.5 -
24/10:30am 19.9 - - - - ENE 9 19 5 10 1018.4 1018.4 -
24/10:00am 20.8 - - - - NNE 13 22 7 12 1018.0 1018.0 -
24/09:30am 21.1 - - - - WNW 11 15 6 8 1019.4 1019.4 -
24/09:00am 20.8 - - - - N 7 11 4 6 1018.8 1018.8 -
24/08:30am 20.6 - - - - NNW 6 13 3 7 1018.3 1018.3 -
24/08:00am 19.4 - - - - NNE 17 22 9 12 1018.3 1018.3 -
24/07:30am 19.1 - - - - N 9 13 5 7 1018.3 1018.3 -
24/07:00am 19.0 - - - - NNE 13 20 7 11 1018.3 1018.3 -
24/06:30am 18.9 - - - - N 19 24 10 13 1018.2 1018.2 -
24/06:00am 18.9 - - - - N 20 28 11 15 1018.9 1018.9 -
24/05:30am 19.0 - - - - NE 7 13 4 7 1019.3 1019.3 -
24/05:00am 18.9 - - - - E 6 11 3 6 1019.0 1019.0 -
24/04:30am 18.8 - - - - SE 7 9 4 5 1018.9 1018.9 -
24/04:00am 18.9 - - - - SE 7 11 4 6 1018.9 1018.9 -
24/03:30am 18.8 - - - - W 11 15 6 8 1019.6 1019.6 -
24/03:00am 19.0 - - - - N 11 15 6 8 1018.5 1018.5 -

Other Formats:

Comma delimited format used in spreadsheet applications
http://www.bom.gov.au/fwo/IDN60801/IDN60801.95745.axf

JavaScript Object Notation format (JSON) in row-major order
http://www.bom.gov.au/fwo/IDN60801/IDN60801.95745.json